KSUA/SUA METAR and TAF weather

Enter ICAO airport designator
Station Type Date Time Source
KSUA METAR 2020/06/03 14:50 UTC NOAA

KSUA 031450Z VRB04KT 2SM +TSRA BKN008 OVC018 23/21 A3009 RMK OCNL LTGCG E-S


Station Type Date Time Source
KSUA Decoded METAR 2020/06/03 14:50 UTC NOAA

Stuart, Witham Field Airport, FL, United States (KSUA) 27-10-54N 080-13-16W
Jun 03, 2020 - 10:50 AM EDT / 2020.06.03 1450 UTC
Wind: Variable at 5 MPH (4 KT):0
Visibility: 2 mile(s):0
Sky conditions: overcast
Weather: heavy rain with thunder; Lightning observed
Temperature: 73 F (23 C)
Dew Point: 69 F (21 C)
Relative Humidity: 88%
Pressure (altimeter): 30.09 in. Hg (1018 hPa)
ob: KSUA 031450Z VRB04KT 2SM +TSRA BKN008 OVC018 23/21 A3009 RMK OCNL LTGCG E-S
cycle: 15

Station Type Date Time Source
KSUA TAF 2020/06/03 12:33 UTC NOAA

TAF KSUA 031131Z 0312/0412 12010KT P6SM -SHRA SCT008 BKN020 OVC030
TEMPO 0312/0314 3SM SHRA BR SCT012 BKN025
FM031400 12013G19KT P6SM -SHRA SCT015 BKN035
TEMPO 0314/0318 2SM +SHRA BKN018
FM032100 14010KT P6SM VCSH BKN035
FM040300 14005KT P6SM VCSH SCT020 BKN035

Example: see airport list